createdAt,value
2022-09-28T00:00:47.991Z,100.00
2022-09-28T00:05:49.394Z,100.00
2022-09-28T00:10:57.469Z,100.00
2022-09-28T00:16:02.275Z,100.00
2022-09-28T00:21:08.743Z,100.00
2022-09-28T00:26:10.126Z,100.00
2022-09-28T00:31:11.635Z,100.00
2022-09-28T00:36:13.096Z,100.00
2022-09-28T00:41:15.350Z,100.00
2022-09-28T00:46:19.903Z,100.00
2022-09-28T00:51:22.098Z,100.00
2022-09-28T00:56:26.844Z,100.00
2022-09-28T01:01:28.609Z,100.00
2022-09-28T01:06:33.330Z,100.00
2022-09-28T01:11:37.757Z,100.00
2022-09-28T01:17:10.464Z,100.00
2022-09-28T01:22:26.337Z,100.00
2022-09-28T01:27:38.088Z,100.00
2022-09-28T01:32:54.743Z,100.00
2022-09-28T01:38:02.932Z,100.00
2022-09-28T01:43:07.995Z,100.00
2022-09-28T01:48:13.012Z,100.00
2022-09-28T01:53:37.642Z,100.00
2022-09-28T01:58:50.729Z,100.00
2022-09-28T02:03:59.113Z,100.00
2022-09-28T02:09:09.746Z,100.00
2022-09-28T02:14:12.475Z,100.00
2022-09-28T02:19:23.599Z,100.00
2022-09-28T02:24:40.026Z,100.00
2022-09-28T02:29:41.799Z,100.00
2022-09-28T02:34:43.280Z,100.00
2022-09-28T02:39:47.387Z,100.00
2022-09-28T02:45:04.438Z,100.00
2022-09-28T02:50:24.275Z,100.00
2022-09-28T02:55:42.504Z,100.00
2022-09-28T03:00:53.084Z,100.00
2022-09-28T03:06:04.223Z,100.00
2022-09-28T03:11:13.882Z,100.00
2022-09-28T03:16:18.058Z,100.00
2022-09-28T03:21:19.635Z,100.00
2022-09-28T03:26:21.125Z,100.00
2022-09-28T03:31:23.048Z,100.00
2022-09-28T03:36:24.627Z,100.00
2022-09-28T03:41:27.928Z,100.00
2022-09-28T03:46:29.387Z,100.00
2022-09-28T03:51:30.899Z,100.00
2022-09-28T03:56:32.361Z,100.00
2022-09-28T04:01:33.886Z,100.00
2022-09-28T04:06:35.302Z,100.00
2022-09-28T04:11:53.199Z,100.00
2022-09-28T04:16:58.307Z,100.00
2022-09-28T04:22:01.482Z,100.00
2022-09-28T04:27:21.612Z,100.00
2022-09-28T04:32:23.271Z,100.00
2022-09-28T04:37:24.725Z,100.00
2022-09-28T04:42:26.206Z,100.00
2022-09-28T04:47:29.730Z,100.00
2022-09-28T04:52:31.251Z,100.00
2022-09-28T04:57:35.755Z,100.00
2022-09-28T05:02:37.350Z,100.00
2022-09-28T05:07:39.028Z,100.00
2022-09-28T05:12:43.467Z,100.00
2022-09-28T05:17:44.918Z,100.00
2022-09-28T05:22:46.388Z,100.00
2022-09-28T05:27:47.936Z,100.00
2022-09-28T05:32:51.075Z,100.00
2022-09-28T05:37:52.725Z,100.00
2022-09-28T05:42:59.034Z,100.00
2022-09-28T05:48:00.673Z,100.00
2022-09-28T05:53:05.778Z,100.00
2022-09-28T05:58:07.670Z,100.00
2022-09-28T06:03:12.586Z,100.00
2022-09-28T06:08:14.021Z,100.00
2022-09-28T06:13:15.499Z,100.00
2022-09-28T06:18:17.099Z,100.00
2022-09-28T06:23:18.648Z,100.00
2022-09-28T06:28:20.144Z,100.00
2022-09-28T06:33:22.026Z,100.00
2022-09-28T06:38:23.500Z,100.00
2022-09-28T06:43:25.296Z,100.00
2022-09-28T06:48:27.164Z,100.00
2022-09-28T06:53:29.659Z,100.00
2022-09-28T06:58:32.339Z,100.00
2022-09-28T07:03:33.872Z,100.00
2022-09-28T07:08:35.390Z,100.00
2022-09-28T07:13:49.435Z,100.00
2022-09-28T07:18:51.705Z,100.00
2022-09-28T07:23:54.275Z,93.90
2022-09-28T07:28:56.122Z,93.33
2022-09-28T07:33:58.658Z,97.62
2022-09-28T07:39:00.139Z,99.58
2022-09-28T07:44:06.227Z,98.93
2022-09-28T07:49:11.398Z,98.69
2022-09-28T07:54:13.953Z,98.58
2022-09-28T07:59:19.503Z,99.29
2022-09-28T08:04:21.052Z,98.94
2022-09-28T08:09:22.523Z,97.33
2022-09-28T08:14:24.941Z,96.51
2022-09-28T08:19:27.876Z,93.51
2022-09-28T08:24:31.522Z,92.80
2022-09-28T08:29:36.454Z,91.20
2022-09-28T08:34:39.700Z,88.95
2022-09-28T08:39:41.120Z,87.82
2022-09-28T08:44:53.566Z,85.85
2022-09-28T08:49:56.031Z,87.58
2022-09-28T08:55:05.866Z,86.55
2022-09-28T09:00:14.657Z,87.05
2022-09-28T09:05:20.168Z,87.04
2022-09-28T09:10:48.146Z,85.96
2022-09-28T09:16:20.277Z,85.41
2022-09-28T09:21:41.162Z,83.29
2022-09-28T09:26:43.572Z,83.86
2022-09-28T09:31:57.785Z,81.18
2022-09-28T09:37:25.604Z,80.42
2022-09-28T09:42:39.241Z,77.73
2022-09-28T09:47:50.317Z,78.29
2022-09-28T09:53:03.245Z,79.13
2022-09-28T09:58:11.111Z,77.92
2022-09-28T10:03:22.227Z,78.35
2022-09-28T10:08:25.936Z,79.77
2022-09-28T10:13:27.389Z,79.86
2022-09-28T10:18:29.151Z,77.00
2022-09-28T10:23:34.026Z,74.89
2022-09-28T10:28:57.010Z,72.68
2022-09-28T10:33:58.384Z,70.86
2022-09-28T10:38:59.805Z,72.49
2022-09-28T10:44:07.068Z,70.59
2022-09-28T10:49:16.950Z,68.31
2022-09-28T10:54:29.555Z,65.43
2022-09-28T10:59:31.495Z,65.80
2022-09-28T11:04:40.151Z,64.23
2022-09-28T11:09:45.450Z,63.69
2022-09-28T11:14:55.558Z,64.11
2022-09-28T11:19:59.679Z,65.17
2022-09-28T11:25:16.344Z,65.82
2022-09-28T11:30:40.864Z,62.42
2022-09-28T11:36:03.879Z,61.95
2022-09-28T11:41:29.006Z,62.59
2022-09-28T11:47:09.899Z,60.15
2022-09-28T11:52:22.538Z,62.18
2022-09-28T11:57:34.576Z,62.42
2022-09-28T12:02:59.333Z,58.05
2022-09-28T12:08:17.120Z,58.41
2022-09-28T12:13:26.691Z,60.41
2022-09-28T12:18:52.795Z,60.80
2022-09-28T12:24:04.919Z,63.21
2022-09-28T12:29:14.594Z,64.07
2022-09-28T12:34:16.830Z,63.83
2022-09-28T12:39:46.933Z,63.75
2022-09-28T12:44:55.916Z,62.05
2022-09-28T12:50:37.541Z,62.26
2022-09-28T12:55:35.251Z,62.85
2022-09-28T13:00:51.326Z,62.90
2022-09-28T13:06:28.399Z,61.53
2022-09-28T13:11:54.733Z,61.31
2022-09-28T13:17:09.265Z,59.58
2022-09-28T13:22:57.130Z,59.15
2022-09-28T13:28:02.862Z,59.26
2022-09-28T13:33:07.346Z,57.21
2022-09-28T13:38:17.797Z,56.14
2022-09-28T13:43:34.219Z,60.22
2022-09-28T13:48:53.695Z,60.77
2022-09-28T13:54:29.158Z,59.66
2022-09-28T13:59:33.839Z,59.33
2022-09-28T14:05:26.171Z,57.39
2022-09-28T14:10:53.637Z,58.84
2022-09-28T14:16:17.856Z,57.64
2022-09-28T14:21:25.977Z,60.18
2022-09-28T14:26:41.951Z,60.65
2022-09-28T14:31:45.302Z,59.62
2022-09-28T14:37:07.629Z,60.69
2022-09-28T14:42:13.424Z,61.21
2022-09-28T14:47:41.603Z,63.20
2022-09-28T14:52:47.705Z,64.25
2022-09-28T14:57:56.652Z,64.33
2022-09-28T15:03:07.858Z,63.92
2022-09-28T15:08:13.444Z,63.90
2022-09-28T15:13:33.305Z,63.32
2022-09-28T15:18:53.507Z,63.51
2022-09-28T15:23:55.178Z,63.58
2022-09-28T15:28:57.182Z,64.17
2022-09-28T15:34:17.165Z,64.21
2022-09-28T15:39:24.063Z,64.20
2022-09-28T15:44:43.014Z,64.48
2022-09-28T15:49:58.480Z,65.27
2022-09-28T15:55:02.561Z,65.42
2022-09-28T16:00:07.805Z,66.63
2022-09-28T16:05:34.315Z,67.43
2022-09-28T16:10:37.061Z,69.65
2022-09-28T16:15:39.509Z,69.59
2022-09-28T16:20:42.570Z,70.90
2022-09-28T16:26:02.083Z,71.74
2022-09-28T16:31:13.030Z,71.97
2022-09-28T16:36:17.187Z,71.83
2022-09-28T16:41:26.119Z,72.70
2022-09-28T16:46:37.582Z,74.40
2022-09-28T16:51:40.294Z,74.94
2022-09-28T16:56:41.791Z,77.19
2022-09-28T17:01:44.004Z,77.61
2022-09-28T17:06:45.634Z,77.55
2022-09-28T17:11:47.339Z,77.78
2022-09-28T17:22:16.704Z,78.82
2022-09-28T17:27:21.026Z,79.40
2022-09-28T17:32:22.622Z,79.27
2022-09-28T17:37:24.183Z,80.57
2022-09-28T17:42:25.754Z,81.46
2022-09-28T17:47:29.992Z,82.10
2022-09-28T17:52:34.969Z,83.07
2022-09-28T17:57:36.375Z,83.85
2022-09-28T18:02:38.173Z,84.25
2022-09-28T18:07:41.416Z,84.48
2022-09-28T18:12:45.857Z,84.95
2022-09-28T18:17:47.461Z,85.86
2022-09-28T18:22:48.932Z,87.53
2022-09-28T18:27:50.351Z,87.90
2022-09-28T18:32:51.920Z,87.84
2022-09-28T18:37:53.734Z,87.78
2022-09-28T18:42:55.152Z,88.91
2022-09-28T18:47:57.628Z,89.54
2022-09-28T18:53:11.444Z,89.96
2022-09-28T18:58:14.464Z,91.15
2022-09-28T19:03:16.006Z,92.89
2022-09-28T19:08:17.735Z,92.89
2022-09-28T19:13:19.328Z,94.21
2022-09-28T19:18:22.967Z,94.24
2022-09-28T19:23:24.801Z,94.72
2022-09-28T19:28:28.462Z,95.79
2022-09-28T19:33:29.885Z,96.09
2022-09-28T19:38:33.139Z,95.98
2022-09-28T19:43:34.864Z,96.07
2022-09-28T19:48:36.409Z,96.06
2022-09-28T19:53:37.930Z,96.27
2022-09-28T19:58:39.361Z,95.74
2022-09-28T20:03:40.788Z,94.89
2022-09-28T20:08:44.778Z,95.29
2022-09-28T20:13:46.547Z,94.75
2022-09-28T20:18:50.247Z,95.09
2022-09-28T20:23:56.510Z,95.63
2022-09-28T20:28:58.225Z,95.62
2022-09-28T20:33:59.633Z,96.16
2022-09-28T20:39:02.366Z,95.94
2022-09-28T20:44:06.559Z,95.79
2022-09-28T20:49:08.480Z,95.83
2022-09-28T20:54:09.939Z,96.69
2022-09-28T20:59:12.078Z,96.25
2022-09-28T21:04:13.818Z,97.32
2022-09-28T21:09:15.377Z,97.65
2022-09-28T21:14:17.219Z,96.71
2022-09-28T21:19:20.185Z,97.73
2022-09-28T21:24:21.628Z,96.96
2022-09-28T21:29:23.015Z,97.07
2022-09-28T21:34:25.203Z,97.02
2022-09-28T21:39:26.696Z,97.88
2022-09-28T21:44:28.109Z,97.50
2022-09-28T21:49:29.619Z,97.50
2022-09-28T21:54:31.016Z,97.72
2022-09-28T21:59:32.457Z,97.78
2022-09-28T22:04:33.935Z,97.34
2022-09-28T22:09:35.636Z,97.35
2022-09-28T22:14:37.109Z,97.45
2022-09-28T22:19:38.575Z,97.92
2022-09-28T22:24:40.057Z,98.42
2022-09-28T22:29:42.363Z,97.69
2022-09-28T22:34:43.794Z,98.37
2022-09-28T22:39:45.269Z,98.73
2022-09-28T22:44:46.703Z,100.00
2022-09-28T22:49:48.206Z,100.00
2022-09-28T22:54:51.220Z,100.00
2022-09-28T22:59:52.663Z,100.00
2022-09-28T23:04:54.060Z,100.00
2022-09-28T23:09:58.228Z,100.00
2022-09-28T23:14:59.756Z,100.00
2022-09-28T23:20:01.524Z,100.00
2022-09-28T23:25:02.979Z,100.00
2022-09-28T23:30:04.753Z,100.00
2022-09-28T23:35:06.856Z,100.00
2022-09-28T23:40:08.576Z,100.00
2022-09-28T23:45:10.261Z,100.00
2022-09-28T23:50:12.053Z,100.00
2022-09-28T23:55:13.650Z,100.00
